createdAt,value
2018-11-01T00:01:42.837Z,76.93
2018-11-01T00:04:11.746Z,77.02
2018-11-01T00:06:40.632Z,76.80
2018-11-01T00:09:09.857Z,77.30
2018-11-01T00:11:38.749Z,77.39
2018-11-01T00:14:08.162Z,77.13
2018-11-01T00:16:37.049Z,77.22
2018-11-01T00:19:06.257Z,77.10
2018-11-01T00:21:35.114Z,77.09
2018-11-01T00:24:03.991Z,77.85
2018-11-01T00:26:32.908Z,77.84
2018-11-01T00:29:01.772Z,77.64
2018-11-01T00:31:30.673Z,77.56
2018-11-01T00:33:59.608Z,76.54
2018-11-01T00:36:28.534Z,76.86
2018-11-01T00:38:57.396Z,77.39
2018-11-01T00:41:26.270Z,76.63
2018-11-01T00:43:55.301Z,77.23
2018-11-01T00:46:24.161Z,76.94
2018-11-01T00:48:53.073Z,76.74
2018-11-01T00:51:21.981Z,77.80
2018-11-01T00:53:50.832Z,77.70
2018-11-01T00:56:19.693Z,77.73
2018-11-01T00:58:48.638Z,77.39
2018-11-01T01:01:17.525Z,76.33
2018-11-01T01:03:46.401Z,77.26
2018-11-01T01:06:15.304Z,77.56
2018-11-01T01:08:44.276Z,77.71
2018-11-01T01:11:13.194Z,77.20
2018-11-01T01:13:43.198Z,77.63
2018-11-01T01:16:12.091Z,76.96
2018-11-01T01:18:41.011Z,77.61
2018-11-01T01:21:21.082Z,77.81
2018-11-01T01:23:49.975Z,77.15
2018-11-01T01:26:18.848Z,77.58
2018-11-01T01:28:47.776Z,77.00
2018-11-01T01:31:16.718Z,77.43
2018-11-01T01:33:45.619Z,77.80
2018-11-01T01:36:14.757Z,77.06
2018-11-01T01:38:43.672Z,77.18
2018-11-01T01:41:12.622Z,77.57
2018-11-01T01:43:41.538Z,77.09
2018-11-01T01:46:10.483Z,77.57
2018-11-01T01:48:39.356Z,77.48
2018-11-01T01:51:08.249Z,77.22
2018-11-01T01:53:37.177Z,77.47
2018-11-01T01:56:06.093Z,77.30
2018-11-01T01:58:35.038Z,77.57
2018-11-01T02:01:04.010Z,77.57
2018-11-01T02:03:32.935Z,78.05
2018-11-01T02:06:01.826Z,78.42
2018-11-01T02:08:30.871Z,78.42
2018-11-01T02:10:59.808Z,78.34
2018-11-01T02:13:28.780Z,79.04
2018-11-01T02:15:57.643Z,78.59
2018-11-01T02:18:26.594Z,78.20
2018-11-01T02:20:55.449Z,78.57
2018-11-01T02:23:24.332Z,78.82
2018-11-01T02:25:53.252Z,79.19
2018-11-01T02:28:22.094Z,79.11
2018-11-01T02:30:50.929Z,78.44
2018-11-01T02:33:19.862Z,78.30
2018-11-01T02:35:48.902Z,78.61
2018-11-01T02:38:17.939Z,78.34
2018-11-01T02:40:46.612Z,77.45
2018-11-01T02:43:15.485Z,77.62
2018-11-01T02:45:44.420Z,77.76
2018-11-01T02:48:13.312Z,77.39
2018-11-01T02:50:42.239Z,77.87
2018-11-01T02:53:11.100Z,77.45
2018-11-01T02:55:40.026Z,78.53
2018-11-01T02:58:08.890Z,78.67
2018-11-01T03:00:37.777Z,78.38
2018-11-01T03:03:06.689Z,77.94
2018-11-01T03:05:35.567Z,78.21
2018-11-01T03:08:04.446Z,78.14
2018-11-01T03:10:33.295Z,78.44
2018-11-01T03:13:02.256Z,78.85
2018-11-01T03:15:31.187Z,78.25
2018-11-01T03:18:00.093Z,77.98
2018-11-01T03:20:29.084Z,78.35
2018-11-01T03:22:57.949Z,78.21
2018-11-01T03:25:26.853Z,77.39
2018-11-01T03:27:55.792Z,77.38
2018-11-01T03:30:24.993Z,77.30
2018-11-01T03:32:53.844Z,77.72
2018-11-01T03:35:22.753Z,78.29
2018-11-01T03:37:51.653Z,77.95
2018-11-01T03:40:20.646Z,77.50
2018-11-01T03:42:49.555Z,78.10
2018-11-01T03:45:18.502Z,78.29
2018-11-01T03:47:47.381Z,78.65
2018-11-01T03:50:16.305Z,78.31
2018-11-01T03:52:45.148Z,79.26
2018-11-01T03:55:14.021Z,79.30
2018-11-01T03:57:43.379Z,79.91
2018-11-01T04:00:14.778Z,79.77
2018-11-01T04:02:44.565Z,79.54
2018-11-01T04:05:13.465Z,78.16
2018-11-01T04:07:42.334Z,78.46
2018-11-01T04:10:11.858Z,78.39
2018-11-01T04:12:40.713Z,79.25
2018-11-01T04:15:12.112Z,79.12
2018-11-01T04:17:40.973Z,78.73
2018-11-01T04:20:11.272Z,78.96
2018-11-01T04:22:40.624Z,79.06
2018-11-01T04:25:09.479Z,79.35
2018-11-01T04:27:38.403Z,79.51
2018-11-01T04:30:07.799Z,79.36
2018-11-01T04:32:36.772Z,79.23
2018-11-01T04:35:06.456Z,79.80
2018-11-01T04:37:35.356Z,79.63
2018-11-01T04:40:04.283Z,80.22
2018-11-01T04:42:33.227Z,79.27
2018-11-01T04:45:02.117Z,79.85
2018-11-01T04:47:31.056Z,79.61
2018-11-01T04:49:59.876Z,79.92
2018-11-01T04:52:28.761Z,79.59
2018-11-01T04:54:57.738Z,79.83
2018-11-01T04:57:26.593Z,80.58
2018-11-01T04:59:55.479Z,79.89
2018-11-01T05:02:24.333Z,80.36
2018-11-01T05:04:53.217Z,80.37
2018-11-01T05:07:22.064Z,79.82
2018-11-01T05:09:50.947Z,79.74
2018-11-01T05:12:19.805Z,80.32
2018-11-01T05:14:48.702Z,80.65
2018-11-01T05:17:17.573Z,80.22
2018-11-01T05:19:46.459Z,80.52
2018-11-01T05:22:15.362Z,80.40
2018-11-01T05:24:44.342Z,81.30
2018-11-01T05:27:13.138Z,81.61
2018-11-01T05:29:42.025Z,82.07
2018-11-01T05:32:10.902Z,81.75
2018-11-01T05:34:39.839Z,81.55
2018-11-01T05:37:08.686Z,81.54
2018-11-01T05:39:37.546Z,80.56
2018-11-01T05:42:06.484Z,80.82
2018-11-01T05:44:35.373Z,81.42
2018-11-01T05:47:04.276Z,81.11
2018-11-01T05:49:33.146Z,81.74
2018-11-01T05:52:02.029Z,82.08
2018-11-01T05:54:31.076Z,81.26
2018-11-01T05:56:59.947Z,81.25
2018-11-01T05:59:28.801Z,81.49
2018-11-01T06:02:00.520Z,80.97
2018-11-01T06:04:29.412Z,80.91
2018-11-01T06:06:58.301Z,81.23
2018-11-01T06:09:30.703Z,81.34
2018-11-01T06:11:59.600Z,80.49
2018-11-01T06:14:28.883Z,80.78
2018-11-01T06:16:58.077Z,80.94
2018-11-01T06:19:26.973Z,81.13
2018-11-01T06:21:55.868Z,81.29
2018-11-01T06:24:24.738Z,81.45
2018-11-01T06:26:53.657Z,81.04
2018-11-01T06:29:23.559Z,81.73
2018-11-01T06:31:52.410Z,81.09
2018-11-01T06:34:26.791Z,80.86
2018-11-01T06:36:55.783Z,80.79
2018-11-01T06:39:24.623Z,80.84
2018-11-01T06:41:53.500Z,81.71
2018-11-01T06:44:22.458Z,81.32
2018-11-01T06:46:51.276Z,81.14
2018-11-01T06:49:20.731Z,81.83
2018-11-01T06:51:49.653Z,81.99
2018-11-01T06:54:18.615Z,81.20
2018-11-01T06:56:47.460Z,82.39
2018-11-01T06:59:16.876Z,82.53
2018-11-01T07:01:45.605Z,83.04
2018-11-01T07:04:14.648Z,84.05
2018-11-01T07:06:43.535Z,83.36
2018-11-01T07:09:13.584Z,83.02
2018-11-01T07:11:42.810Z,82.46
2018-11-01T07:14:11.716Z,82.76
2018-11-01T07:16:40.597Z,82.89
2018-11-01T07:19:09.813Z,82.96
2018-11-01T07:21:38.687Z,82.29
2018-11-01T07:24:07.589Z,81.61
2018-11-01T07:26:36.658Z,81.73
2018-11-01T07:29:05.465Z,82.49
2018-11-01T07:31:34.350Z,82.06
2018-11-01T07:34:03.245Z,82.29
2018-11-01T07:36:32.160Z,82.10
2018-11-01T07:39:01.025Z,81.37
2018-11-01T07:41:29.911Z,81.65
2018-11-01T07:43:58.803Z,81.93
2018-11-01T07:46:27.678Z,81.54
2018-11-01T07:48:56.533Z,81.66
2018-11-01T07:51:25.560Z,81.19
2018-11-01T07:53:54.500Z,81.79
2018-11-01T07:56:23.464Z,81.39
2018-11-01T07:58:52.337Z,82.60
2018-11-01T08:01:21.198Z,83.46
2018-11-01T08:03:50.107Z,83.82
2018-11-01T08:06:19.024Z,83.70
2018-11-01T08:08:47.888Z,83.77
2018-11-01T08:11:16.769Z,83.44
2018-11-01T08:13:45.702Z,83.14
2018-11-01T08:16:14.556Z,83.24
2018-11-01T08:18:43.475Z,83.50
2018-11-01T08:21:12.654Z,84.37
2018-11-01T08:23:41.349Z,83.94
2018-11-01T08:26:10.262Z,83.37
2018-11-01T08:28:39.169Z,83.11
2018-11-01T08:31:08.091Z,83.62
2018-11-01T08:33:37.008Z,83.94
2018-11-01T08:36:06.053Z,82.95
2018-11-01T08:38:34.958Z,83.48
2018-11-01T08:41:03.921Z,83.00
2018-11-01T08:43:32.776Z,84.47
2018-11-01T08:46:01.672Z,83.75
2018-11-01T08:48:30.580Z,82.99
2018-11-01T08:50:59.477Z,82.68
2018-11-01T08:53:28.386Z,83.02
2018-11-01T08:55:57.297Z,84.23
2018-11-01T08:58:26.168Z,83.64
2018-11-01T09:00:55.101Z,83.53
2018-11-01T09:03:24.116Z,83.76
2018-11-01T09:05:52.989Z,84.20
2018-11-01T09:08:21.908Z,83.72
2018-11-01T09:10:50.786Z,83.87
2018-11-01T09:13:19.881Z,83.94
2018-11-01T09:15:48.692Z,84.28
2018-11-01T09:18:17.556Z,84.59
2018-11-01T09:20:46.417Z,84.79
2018-11-01T09:23:15.304Z,84.11
2018-11-01T09:25:44.184Z,85.13
2018-11-01T09:28:13.099Z,84.53
2018-11-01T09:30:42.067Z,84.63
2018-11-01T09:33:10.938Z,84.56
2018-11-01T09:35:39.856Z,84.13
2018-11-01T09:38:08.736Z,84.55
2018-11-01T09:40:37.637Z,83.96
2018-11-01T09:43:06.526Z,84.43
2018-11-01T09:45:35.427Z,84.04
2018-11-01T09:48:04.320Z,84.31
2018-11-01T09:50:33.211Z,83.84
2018-11-01T09:53:02.127Z,84.38
2018-11-01T09:55:31.010Z,84.02
2018-11-01T09:57:59.890Z,84.89
2018-11-01T10:00:28.769Z,84.41
2018-11-01T10:02:57.633Z,84.03
2018-11-01T10:05:26.533Z,84.38
2018-11-01T10:07:55.470Z,84.13
2018-11-01T10:10:24.360Z,84.60
2018-11-01T10:12:53.268Z,83.84
2018-11-01T10:15:22.463Z,84.08
2018-11-01T10:17:51.599Z,84.11
2018-11-01T10:20:20.037Z,83.84
2018-11-01T10:22:49.081Z,83.71
2018-11-01T10:25:18.011Z,83.97
2018-11-01T10:27:47.051Z,83.48
2018-11-01T10:30:17.410Z,84.06
2018-11-01T10:32:46.351Z,83.80
2018-11-01T10:35:16.182Z,84.36
2018-11-01T10:37:45.067Z,83.76
2018-11-01T10:40:18.372Z,83.98
2018-11-01T10:42:47.270Z,85.22
2018-11-01T10:45:16.176Z,84.79
2018-11-01T10:47:45.140Z,85.19
2018-11-01T10:50:15.754Z,85.50
2018-11-01T10:52:44.721Z,84.78
2018-11-01T10:55:14.000Z,84.82
2018-11-01T10:57:43.087Z,85.18
2018-11-01T11:00:17.683Z,85.14
2018-11-01T11:02:47.753Z,84.92
2018-11-01T11:05:17.408Z,85.05
2018-11-01T11:07:46.611Z,85.33
2018-11-01T11:10:15.885Z,84.75
2018-11-01T11:12:44.979Z,84.57
2018-11-01T11:15:13.887Z,84.88
2018-11-01T11:17:42.790Z,84.57
2018-11-01T11:20:12.510Z,84.34
2018-11-01T11:22:41.583Z,83.94
2018-11-01T11:25:11.761Z,84.01
2018-11-01T11:27:40.869Z,84.13
2018-11-01T11:30:10.591Z,84.85
2018-11-01T11:32:39.597Z,84.22
2018-11-01T11:35:09.166Z,83.85
2018-11-01T11:37:38.039Z,83.93
2018-11-01T11:40:08.420Z,83.87
2018-11-01T11:42:37.297Z,83.85
2018-11-01T11:45:06.719Z,83.52
2018-11-01T11:47:35.583Z,84.22
2018-11-01T11:50:04.982Z,83.99
2018-11-01T11:52:33.950Z,83.87
2018-11-01T11:55:02.798Z,83.88
2018-11-01T11:57:31.713Z,84.14
2018-11-01T12:00:00.612Z,84.49
2018-11-01T12:02:29.653Z,83.75
2018-11-01T12:04:58.477Z,82.86
2018-11-01T12:07:27.351Z,83.10
2018-11-01T12:09:56.247Z,83.08
2018-11-01T12:12:25.127Z,84.40
2018-11-01T12:14:54.046Z,83.63
2018-11-01T12:17:22.944Z,84.08
2018-11-01T12:19:51.829Z,83.42
2018-11-01T12:22:20.775Z,83.37
2018-11-01T12:24:49.614Z,83.37
2018-11-01T12:27:18.491Z,83.62
2018-11-01T12:29:47.573Z,83.56
2018-11-01T12:32:16.634Z,84.40
2018-11-01T12:34:45.527Z,82.57
2018-11-01T12:37:14.403Z,82.67
2018-11-01T12:39:43.305Z,83.77
2018-11-01T12:42:12.265Z,83.20
2018-11-01T12:44:41.155Z,83.23
2018-11-01T12:47:10.165Z,83.28
2018-11-01T12:49:39.327Z,83.84
2018-11-01T12:52:08.190Z,83.48
2018-11-01T12:54:37.121Z,83.69
2018-11-01T12:57:06.034Z,83.43
2018-11-01T12:59:34.927Z,83.66
2018-11-01T13:02:03.813Z,84.40
2018-11-01T13:04:32.678Z,84.73
2018-11-01T13:07:01.599Z,84.67
2018-11-01T13:09:30.475Z,84.76
2018-11-01T13:12:00.402Z,84.15
2018-11-01T13:14:29.304Z,84.00
2018-11-01T13:16:58.221Z,84.03
2018-11-01T13:19:27.104Z,83.82
2018-11-01T13:21:56.192Z,84.33
2018-11-01T13:24:25.094Z,84.26
2018-11-01T13:26:53.959Z,84.82
2018-11-01T13:29:22.911Z,84.45
2018-11-01T13:31:51.772Z,84.96
2018-11-01T13:34:20.686Z,84.73
2018-11-01T13:36:49.564Z,84.88
2018-11-01T13:39:18.471Z,84.52
2018-11-01T13:41:47.461Z,84.59
2018-11-01T13:44:16.392Z,85.16
2018-11-01T13:46:45.476Z,86.19
2018-11-01T13:49:14.307Z,85.82
2018-11-01T13:51:44.015Z,86.58
2018-11-01T13:54:13.173Z,85.81
2018-11-01T13:56:42.118Z,86.17
2018-11-01T13:59:10.979Z,86.03
2018-11-01T14:01:39.911Z,85.94
2018-11-01T14:04:08.784Z,85.87
2018-11-01T14:06:37.713Z,85.88
2018-11-01T14:09:08.383Z,85.38
2018-11-01T14:11:37.637Z,85.50
2018-11-01T14:14:07.016Z,85.97
2018-11-01T14:16:35.692Z,85.55
2018-11-01T14:19:04.612Z,85.82
2018-11-01T14:21:33.475Z,85.28
2018-11-01T14:24:02.436Z,85.72
2018-11-01T14:26:31.326Z,85.61
2018-11-01T14:29:00.247Z,86.00
2018-11-01T14:31:29.185Z,86.48
2018-11-01T14:33:58.112Z,85.95
2018-11-01T14:36:26.974Z,85.59
2018-11-01T14:38:55.873Z,85.48
2018-11-01T14:41:25.698Z,85.77
2018-11-01T14:43:54.618Z,85.82
2018-11-01T14:46:23.511Z,86.17
2018-11-01T14:48:52.436Z,86.26
2018-11-01T14:51:21.389Z,86.87
2018-11-01T14:53:50.517Z,86.05
2018-11-01T14:56:20.671Z,86.32
2018-11-01T14:58:49.704Z,87.04
2018-11-01T15:01:17.218Z,87.13
2018-11-01T15:03:46.122Z,86.66
2018-11-01T15:06:14.989Z,85.78
2018-11-01T15:08:43.929Z,86.23
2018-11-01T15:11:12.844Z,85.77
2018-11-01T15:13:41.746Z,86.00
2018-11-01T15:16:10.649Z,85.67
2018-11-01T15:18:39.548Z,86.12
2018-11-01T15:21:08.446Z,86.61
2018-11-01T15:23:37.357Z,86.04
2018-11-01T15:26:06.404Z,86.56
2018-11-01T15:28:35.299Z,86.29
2018-11-01T15:31:04.192Z,86.24
2018-11-01T15:33:33.149Z,86.69
2018-11-01T15:36:02.019Z,86.04
2018-11-01T15:38:30.883Z,85.97
2018-11-01T15:40:59.806Z,87.09
2018-11-01T15:43:29.045Z,87.31
2018-11-01T15:45:58.077Z,86.40
2018-11-01T15:48:27.104Z,86.59
2018-11-01T15:50:56.055Z,86.84
2018-11-01T15:53:24.936Z,87.10
2018-11-01T15:55:53.859Z,87.02
2018-11-01T15:58:22.729Z,86.94
2018-11-01T16:00:51.661Z,86.35
2018-11-01T16:03:20.704Z,87.48
2018-11-01T16:05:49.603Z,86.95
2018-11-01T16:08:18.569Z,86.95
2018-11-01T16:10:47.471Z,87.25
2018-11-01T16:13:16.464Z,86.89
2018-11-01T16:15:45.373Z,86.28
2018-11-01T16:18:14.303Z,86.29
2018-11-01T16:20:43.180Z,86.36
2018-11-01T16:23:12.256Z,86.52
2018-11-01T16:25:41.180Z,86.17
2018-11-01T16:28:10.065Z,86.77
2018-11-01T16:30:38.987Z,86.21
2018-11-01T16:33:07.895Z,86.35
2018-11-01T16:35:36.813Z,86.36
2018-11-01T16:38:05.796Z,86.24
2018-11-01T16:40:34.672Z,86.43
2018-11-01T16:43:03.544Z,86.68
2018-11-01T16:45:32.459Z,86.80
2018-11-01T16:48:01.362Z,87.09
2018-11-01T16:50:30.272Z,86.77
2018-11-01T16:52:59.182Z,87.73
2018-11-01T16:55:28.049Z,87.01
2018-11-01T16:57:57.069Z,86.34
2018-11-01T17:00:26.013Z,86.78
2018-11-01T17:02:54.937Z,86.45
2018-11-01T17:05:23.861Z,86.43
2018-11-01T17:07:52.794Z,87.57
2018-11-01T17:10:21.647Z,87.22
2018-11-01T17:12:50.556Z,86.27
2018-11-01T17:15:20.768Z,86.85
2018-11-01T17:17:49.574Z,87.48
2018-11-01T17:20:18.475Z,86.88
2018-11-01T17:22:47.378Z,87.65
2018-11-01T17:25:16.266Z,87.29
2018-11-01T17:27:45.187Z,86.98
2018-11-01T17:30:14.098Z,86.85
2018-11-01T17:32:50.815Z,86.91
2018-11-01T17:35:19.763Z,86.75
2018-11-01T17:37:48.657Z,86.62
2018-11-01T17:40:17.666Z,86.61
2018-11-01T17:42:46.471Z,86.60
2018-11-01T17:45:15.406Z,86.73
2018-11-01T17:47:44.293Z,87.20
2018-11-01T17:50:14.500Z,87.31
2018-11-01T17:52:43.683Z,87.05
2018-11-01T17:55:12.623Z,88.24
2018-11-01T17:57:41.931Z,87.29
2018-11-01T18:00:12.122Z,86.93
2018-11-01T18:02:41.582Z,87.36
2018-11-01T18:05:11.224Z,87.31
2018-11-01T18:07:40.734Z,86.62
2018-11-01T18:10:10.877Z,86.93
2018-11-01T18:12:39.799Z,86.80
2018-11-01T18:15:09.052Z,86.82
2018-11-01T18:17:38.002Z,87.10
2018-11-01T18:20:08.379Z,87.26
2018-11-01T18:22:37.363Z,87.42
2018-11-01T18:25:07.440Z,87.17
2018-11-01T18:27:36.445Z,86.32
2018-11-01T18:30:06.563Z,86.70
2018-11-01T18:32:35.533Z,87.00
2018-11-01T18:35:04.388Z,86.58
2018-11-01T18:37:33.317Z,88.02
2018-11-01T18:40:02.250Z,88.13
2018-11-01T18:42:31.243Z,89.10
2018-11-01T18:45:00.043Z,88.82
2018-11-01T18:47:28.989Z,88.60
2018-11-01T18:49:57.921Z,87.86
2018-11-01T18:52:26.853Z,88.11
2018-11-01T18:54:55.763Z,88.35
2018-11-01T18:57:24.699Z,88.77
2018-11-01T18:59:53.632Z,88.71
2018-11-01T19:02:22.514Z,88.47
2018-11-01T19:04:51.441Z,88.03
2018-11-01T19:07:20.351Z,88.42
2018-11-01T19:09:49.244Z,87.56
2018-11-01T19:12:18.234Z,87.48
2018-11-01T19:14:47.127Z,88.25
2018-11-01T19:17:16.085Z,88.13
2018-11-01T19:19:45.263Z,88.21
2018-11-01T19:22:14.015Z,88.14
2018-11-01T19:24:42.916Z,87.57
2018-11-01T19:27:12.056Z,88.04
2018-11-01T19:29:40.808Z,87.80
2018-11-01T19:32:09.739Z,88.28
2018-11-01T19:34:38.890Z,88.06
2018-11-01T19:37:07.741Z,88.14
2018-11-01T19:39:36.750Z,87.66
2018-11-01T19:42:05.723Z,88.22
2018-11-01T19:44:34.620Z,87.83
2018-11-01T19:47:03.561Z,87.38
2018-11-01T19:49:32.487Z,87.86
2018-11-01T19:52:01.372Z,87.81
2018-11-01T19:54:30.363Z,87.64
2018-11-01T19:56:59.258Z,88.12
2018-11-01T19:59:28.207Z,87.70
2018-11-01T20:01:57.108Z,87.30
2018-11-01T20:04:26.119Z,88.12
2018-11-01T20:06:54.998Z,87.87
2018-11-01T20:09:23.883Z,87.64
2018-11-01T20:11:52.760Z,87.52
2018-11-01T20:14:21.705Z,87.94
2018-11-01T20:16:50.594Z,88.04
2018-11-01T20:19:19.686Z,87.93
2018-11-01T20:21:48.487Z,87.79
2018-11-01T20:24:17.294Z,87.77
2018-11-01T20:26:46.242Z,88.42
2018-11-01T20:29:15.143Z,88.04
2018-11-01T20:31:44.145Z,88.91
2018-11-01T20:34:12.951Z,88.78
2018-11-01T20:36:41.873Z,89.30
2018-11-01T20:39:13.543Z,89.23
2018-11-01T20:41:42.551Z,88.85
2018-11-01T20:44:12.073Z,89.63
2018-11-01T20:46:41.043Z,88.46
2018-11-01T20:49:09.935Z,89.14
2018-11-01T20:51:38.833Z,89.36
2018-11-01T20:54:07.739Z,89.84
2018-11-01T20:56:36.618Z,89.04
2018-11-01T20:59:05.587Z,89.45
2018-11-01T21:01:34.506Z,89.45
2018-11-01T21:04:03.415Z,90.60
2018-11-01T21:06:32.294Z,90.42
2018-11-01T21:09:01.286Z,90.43
2018-11-01T21:11:30.415Z,89.78
2018-11-01T21:13:59.310Z,90.24
2018-11-01T21:16:28.193Z,90.33
2018-11-01T21:18:57.071Z,90.37
2018-11-01T21:21:25.970Z,90.32
2018-11-01T21:23:54.901Z,90.21
2018-11-01T21:26:23.768Z,91.62
2018-11-01T21:28:52.698Z,91.92
2018-11-01T21:31:21.562Z,91.63
2018-11-01T21:33:50.541Z,90.81
2018-11-01T21:36:19.424Z,91.51
2018-11-01T21:38:48.281Z,91.79
2018-11-01T21:41:17.209Z,92.33
2018-11-01T21:43:46.096Z,92.37
2018-11-01T21:46:14.985Z,92.93
2018-11-01T21:48:43.927Z,93.20
2018-11-01T21:51:12.788Z,93.35
2018-11-01T21:53:42.662Z,93.65
2018-11-01T21:56:11.681Z,94.11
2018-11-01T21:58:40.600Z,93.50
2018-11-01T22:01:09.492Z,93.46
2018-11-01T22:03:38.416Z,94.07
2018-11-01T22:06:07.383Z,93.13
2018-11-01T22:08:36.354Z,93.84
2018-11-01T22:11:05.331Z,93.71
2018-11-01T22:13:34.253Z,93.92
2018-11-01T22:16:03.144Z,94.23
2018-11-01T22:18:32.030Z,94.61
2018-11-01T22:21:00.954Z,94.43
2018-11-01T22:23:29.838Z,94.16
2018-11-01T22:25:58.754Z,94.64
2018-11-01T22:28:27.675Z,95.59
2018-11-01T22:30:56.640Z,94.98
2018-11-01T22:33:25.509Z,94.97
2018-11-01T22:35:54.453Z,94.08
2018-11-01T22:38:23.353Z,94.99
2018-11-01T22:40:52.383Z,94.71
2018-11-01T22:43:21.312Z,94.60
2018-11-01T22:45:50.244Z,94.42
2018-11-01T22:48:19.178Z,94.70
2018-11-01T22:50:48.106Z,94.87
2018-11-01T22:53:17.040Z,94.25
2018-11-01T22:55:45.920Z,95.16
2018-11-01T22:58:14.848Z,94.81
2018-11-01T23:00:44.837Z,94.68
2018-11-01T23:03:14.146Z,94.67
2018-11-01T23:05:43.082Z,94.28
2018-11-01T23:08:12.029Z,94.23
2018-11-01T23:10:40.929Z,94.27
2018-11-01T23:13:09.844Z,93.93
2018-11-01T23:15:38.714Z,94.02
2018-11-01T23:18:07.617Z,93.68
2018-11-01T23:20:36.483Z,93.34
2018-11-01T23:23:07.768Z,93.90
2018-11-01T23:25:37.354Z,94.28
2018-11-01T23:28:07.867Z,94.26
2018-11-01T23:30:36.831Z,93.45
2018-11-01T23:33:07.010Z,93.03
2018-11-01T23:35:38.924Z,92.54
2018-11-01T23:38:14.266Z,91.88
2018-11-01T23:40:48.400Z,92.76
2018-11-01T23:43:22.694Z,92.42
2018-11-01T23:45:57.078Z,92.67
2018-11-01T23:48:25.180Z,92.18
2018-11-01T23:51:03.497Z,91.98
2018-11-01T23:53:34.779Z,91.60
2018-11-01T23:56:03.837Z,92.17
2018-11-01T23:58:32.714Z,92.61
